sensor_id;sensor_type;location;lat;lon;timestamp;pressure;altitude;pressure_sealevel;temperature;humidity
17525;BME280;40431;52.198;9.902;2023-02-12T00:02:16;102689.91;;;7.17;100.00
17525;BME280;40431;52.198;9.902;2023-02-12T00:04:46;102693.56;;;7.11;100.00
17525;BME280;40431;52.198;9.902;2023-02-12T00:07:19;102695.25;;;7.18;100.00
17525;BME280;40431;52.198;9.902;2023-02-12T00:09:52;102701.56;;;7.17;100.00
17525;BME280;40431;52.198;9.902;2023-02-12T00:12:20;102704.25;;;7.19;100.00
17525;BME280;40431;52.198;9.902;2023-02-12T00:14:50;102705.16;;;7.19;100.00
17525;BME280;40431;52.198;9.902;2023-02-12T00:17:19;102713.22;;;7.21;100.00
17525;BME280;40431;52.198;9.902;2023-02-12T00:19:47;102703.34;;;7.18;100.00
17525;BME280;40431;52.198;9.902;2023-02-12T00:22:14;102706.91;;;7.24;100.00
17525;BME280;40431;52.198;9.902;2023-02-12T00:24:41;102706.13;;;7.12;100.00
17525;BME280;40431;52.198;9.902;2023-02-12T00:27:10;102709.69;;;7.16;100.00
17525;BME280;40431;52.198;9.902;2023-02-12T00:29:37;102718.63;;;7.21;100.00
17525;BME280;40431;52.198;9.902;2023-02-12T00:32:05;102707.88;;;7.18;100.00
17525;BME280;40431;52.198;9.902;2023-02-12T00:34:32;102710.56;;;7.19;100.00
17525;BME280;40431;52.198;9.902;2023-02-12T00:37:00;102717.69;;;7.24;100.00
17525;BME280;40431;52.198;9.902;2023-02-12T00:39:27;102703.31;;;7.22;100.00
17525;BME280;40431;52.198;9.902;2023-02-12T00:41:56;102720.31;;;7.28;100.00
17525;BME280;40431;52.198;9.902;2023-02-12T00:44:28;102706.91;;;7.21;100.00
17525;BME280;40431;52.198;9.902;2023-02-12T00:46:58;102723.03;;;7.27;100.00
17525;BME280;40431;52.198;9.902;2023-02-12T00:49:27;102710.44;;;7.26;100.00
17525;BME280;40431;52.198;9.902;2023-02-12T00:51:54;102718.53;;;7.26;100.00
17525;BME280;40431;52.198;9.902;2023-02-12T00:54:21;102714.16;;;7.18;100.00
17525;BME280;40431;52.198;9.902;2023-02-12T00:56:51;102723.16;;;7.17;100.00
17525;BME280;40431;52.198;9.902;2023-02-12T00:59:20;102716.81;;;7.20;100.00
17525;BME280;40431;52.198;9.902;2023-02-12T01:01:49;102721.34;;;7.19;100.00
17525;BME280;40431;52.198;9.902;2023-02-12T01:04:17;102722.19;;;7.22;100.00
17525;BME280;40431;52.198;9.902;2023-02-12T01:06:44;102732.97;;;7.26;100.00
17525;BME280;40431;52.198;9.902;2023-02-12T01:09:11;102725.00;;;7.15;100.00
17525;BME280;40431;52.198;9.902;2023-02-12T01:11:40;102738.47;;;7.17;100.00
17525;BME280;40431;52.198;9.902;2023-02-12T01:14:10;102724.94;;;7.18;100.00
17525;BME280;40431;52.198;9.902;2023-02-12T01:16:37;102726.75;;;7.19;100.00
17525;BME280;40431;52.198;9.902;2023-02-12T01:19:06;102721.41;;;7.13;100.00
17525;BME280;40431;52.198;9.902;2023-02-12T01:21:34;102731.28;;;7.14;100.00
17525;BME280;40431;52.198;9.902;2023-02-12T01:24:04;102735.78;;;7.15;100.00
17525;BME280;40431;52.198;9.902;2023-02-12T01:26:35;102742.91;;;7.21;100.00
17525;BME280;40431;52.198;9.902;2023-02-12T01:29:04;102737.50;;;7.23;100.00
17525;BME280;40431;52.198;9.902;2023-02-12T01:31:34;102726.75;;;7.18;100.00
17525;BME280;40431;52.198;9.902;2023-02-12T01:34:03;102727.63;;;7.20;100.00
17525;BME280;40431;52.198;9.902;2023-02-12T01:36:31;102725.84;;;7.17;100.00
17525;BME280;40431;52.198;9.902;2023-02-12T01:38:59;102730.34;;;7.18;100.00
17525;BME280;40431;52.198;9.902;2023-02-12T01:41:30;102734.03;;;7.11;100.00
17525;BME280;40431;52.198;9.902;2023-02-12T01:44:05;102741.25;;;7.09;100.00
17525;BME280;40431;52.198;9.902;2023-02-12T01:46:35;102734.03;;;7.11;100.00
17525;BME280;40431;52.198;9.902;2023-02-12T01:49:06;102743.75;;;7.23;100.00
17525;BME280;40431;52.198;9.902;2023-02-12T01:51:35;102736.72;;;7.10;100.00
17525;BME280;40431;52.198;9.902;2023-02-12T01:54:06;102735.81;;;7.12;100.00
17525;BME280;40431;52.198;9.902;2023-02-12T01:56:34;102741.19;;;7.12;100.00
17525;BME280;40431;52.198;9.902;2023-02-12T01:59:01;102738.56;;;7.08;100.00
17525;BME280;40431;52.198;9.902;2023-02-12T02:01:30;102746.56;;;7.15;100.00
17525;BME280;40431;52.198;9.902;2023-02-12T02:04:01;102747.50;;;7.13;100.00
17525;BME280;40431;52.198;9.902;2023-02-12T02:06:32;102738.59;;;7.03;100.00
17525;BME280;40431;52.198;9.902;2023-02-12T02:09:02;102745.81;;;7.02;100.00
17525;BME280;40431;52.198;9.902;2023-02-12T02:11:29;102737.75;;;6.98;100.00
17525;BME280;40431;52.198;9.902;2023-02-12T02:14:14;102736.84;;;6.99;100.00
17525;BME280;40431;52.198;9.902;2023-02-12T02:17:15;102738.72;;;6.95;100.00
17525;BME280;40431;52.198;9.902;2023-02-12T02:22:59;102753.88;;;7.04;100.00
17525;BME280;40431;52.198;9.902;2023-02-12T02:25:55;102737.75;;;7.01;100.00
17525;BME280;40431;52.198;9.902;2023-02-12T02:28:37;102736.00;;;6.97;100.00
17525;BME280;40431;52.198;9.902;2023-02-12T02:31:16;102732.34;;;6.98;100.00
17525;BME280;40431;52.198;9.902;2023-02-12T02:33:52;102745.00;;;6.94;100.00
17525;BME280;40431;52.198;9.902;2023-02-12T02:36:26;102738.72;;;6.95;100.00
17525;BME280;40431;52.198;9.902;2023-02-12T02:39:02;102726.16;;;6.90;100.00
17525;BME280;40431;52.198;9.902;2023-02-12T02:41:34;102748.59;;;6.93;100.00
17525;BME280;40431;52.198;9.902;2023-02-12T02:44:11;102730.72;;;6.86;100.00
17525;BME280;40431;52.198;9.902;2023-02-12T02:46:44;102719.06;;;6.82;100.00
17525;BME280;40431;52.198;9.902;2023-02-12T02:49:16;102725.28;;;6.89;100.00
17525;BME280;40431;52.198;9.902;2023-02-12T02:51:47;102736.06;;;6.91;100.00
17525;BME280;40431;52.198;9.902;2023-02-12T02:54:18;102740.53;;;6.92;100.00
17525;BME280;40431;52.198;9.902;2023-02-12T02:56:48;102740.56;;;6.87;100.00
17525;BME280;40431;52.198;9.902;2023-02-12T02:59:20;102742.44;;;6.83;100.00
17525;BME280;40431;52.198;9.902;2023-02-12T03:01:54;102737.03;;;6.80;100.00
17525;BME280;40431;52.198;9.902;2023-02-12T03:04:28;102746.97;;;6.78;100.00
17525;BME280;40431;52.198;9.902;2023-02-12T03:07:00;102736.22;;;6.77;100.00
17525;BME280;40431;52.198;9.902;2023-02-12T03:09:33;102746.97;;;6.75;100.00
17525;BME280;40431;52.198;9.902;2023-02-12T03:12:06;102741.66;;;6.69;100.00
17525;BME280;40431;52.198;9.902;2023-02-12T03:14:38;102743.47;;;6.70;100.00
17525;BME280;40431;52.198;9.902;2023-02-12T03:17:09;102745.22;;;6.74;100.00
17525;BME280;40431;52.198;9.902;2023-02-12T03:19:45;102746.22;;;6.62;100.00
17525;BME280;40431;52.198;9.902;2023-02-12T03:22:15;102751.59;;;6.64;100.00
17525;BME280;40431;52.198;9.902;2023-02-12T03:24:46;102750.69;;;6.65;100.00
17525;BME280;40431;52.198;9.902;2023-02-12T03:27:18;102745.31;;;6.65;100.00
17525;BME280;40431;52.198;9.902;2023-02-12T03:29:46;102750.69;;;6.65;100.00
17525;BME280;40431;52.198;9.902;2023-02-12T03:32:27;102756.06;;;6.68;100.00
17525;BME280;40431;52.198;9.902;2023-02-12T03:35:08;102748.94;;;6.61;100.00
17525;BME280;40431;52.198;9.902;2023-02-12T03:37:38;102770.47;;;6.64;100.00
17525;BME280;40431;52.198;9.902;2023-02-12T03:40:13;102761.50;;;6.65;100.00
17525;BME280;40431;52.198;9.902;2023-02-12T03:42:45;102768.63;;;6.66;100.00
17525;BME280;40431;52.198;9.902;2023-02-12T03:45:24;102771.34;;;6.66;100.00
17525;BME280;40431;52.198;9.902;2023-02-12T03:48:01;102772.28;;;6.62;100.00
17525;BME280;40431;52.198;9.902;2023-02-12T03:50:35;102776.75;;;6.67;100.00
17525;BME280;40431;52.198;9.902;2023-02-12T03:53:04;102767.81;;;6.59;100.00
17525;BME280;40431;52.198;9.902;2023-02-12T03:55:33;102768.75;;;6.54;100.00
17525;BME280;40431;52.198;9.902;2023-02-12T03:58:03;102772.38;;;6.51;100.00
17525;BME280;40431;52.198;9.902;2023-02-12T04:00:33;102782.22;;;6.55;100.00
17525;BME280;40431;52.198;9.902;2023-02-12T04:03:01;102789.38;;;6.58;100.00
17525;BME280;40431;52.198;9.902;2023-02-12T04:05:27;102785.84;;;6.51;100.00
17525;BME280;40431;52.198;9.902;2023-02-12T04:07:56;102788.53;;;6.56;100.00
17525;BME280;40431;52.198;9.902;2023-02-12T04:10:28;102790.31;;;6.54;100.00
17525;BME280;40431;52.198;9.902;2023-02-12T04:13:08;102799.31;;;6.52;100.00
17525;BME280;40431;52.198;9.902;2023-02-12T04:15:45;102801.94;;;6.60;100.00
17525;BME280;40431;52.198;9.902;2023-02-12T04:18:19;102795.78;;;6.44;100.00
17525;BME280;40431;52.198;9.902;2023-02-12T04:20:56;102797.63;;;6.42;100.00
17525;BME280;40431;52.198;9.902;2023-02-12T04:23:38;102811.03;;;6.47;100.00
17525;BME280;40431;52.198;9.902;2023-02-12T04:26:10;102799.41;;;6.40;100.00
17525;BME280;40431;52.198;9.902;2023-02-12T04:28:46;102805.69;;;6.44;100.00
17525;BME280;40431;52.198;9.902;2023-02-12T04:31:22;102806.59;;;6.43;100.00
17525;BME280;40431;52.198;9.902;2023-02-12T04:33:58;102811.97;;;6.44;100.00
17525;BME280;40431;52.198;9.902;2023-02-12T04:36:33;102807.47;;;6.46;100.00
17525;BME280;40431;52.198;9.902;2023-02-12T04:39:03;102813.78;;;6.42;100.00
17525;BME280;40431;52.198;9.902;2023-02-12T04:41:36;102822.78;;;6.41;100.00
17525;BME280;40431;52.198;9.902;2023-02-12T04:44:14;102835.31;;;6.45;100.00
17525;BME280;40431;52.198;9.902;2023-02-12T04:46:42;102835.34;;;6.39;100.00
17525;BME280;40431;52.198;9.902;2023-02-12T04:49:13;102837.19;;;6.37;100.00
17525;BME280;40431;52.198;9.902;2023-02-12T04:51:42;102832.66;;;6.39;100.00
17525;BME280;40431;52.198;9.902;2023-02-12T04:54:10;102834.44;;;6.40;100.00
17525;BME280;40431;52.198;9.902;2023-02-12T04:56:37;102837.19;;;6.37;100.00
17525;BME280;40431;52.198;9.902;2023-02-12T04:59:04;102842.53;;;6.40;100.00
17525;BME280;40431;52.198;9.902;2023-02-12T05:01:32;102837.19;;;6.35;100.00
17525;BME280;40431;52.198;9.902;2023-02-12T05:04:00;102840.75;;;6.42;100.00
17525;BME280;40431;52.198;9.902;2023-02-12T05:06:29;102839.88;;;6.34;100.00
17525;BME280;40431;52.198;9.902;2023-02-12T05:08:56;102841.69;;;6.29;100.00
17525;BME280;40431;52.198;9.902;2023-02-12T05:11:23;102839.88;;;6.34;100.00
17525;BME280;40431;52.198;9.902;2023-02-12T05:13:51;102840.78;;;6.31;100.00
17525;BME280;40431;52.198;9.902;2023-02-12T05:16:19;102850.66;;;6.35;100.00
17525;BME280;40431;52.198;9.902;2023-02-12T05:18:46;102836.31;;;6.32;100.00
17525;BME280;40431;52.198;9.902;2023-02-12T05:21:13;102830.00;;;6.36;100.00
17525;BME280;40431;52.198;9.902;2023-02-12T05:23:42;102847.06;;;6.35;100.00
17525;BME280;40431;52.198;9.902;2023-02-12T05:26:11;102839.00;;;6.32;100.00
17525;BME280;40431;52.198;9.902;2023-02-12T05:28:38;102838.06;;;6.36;100.00
17525;BME280;40431;52.198;9.902;2023-02-12T05:31:08;102846.13;;;6.42;100.00
17525;BME280;40431;52.198;9.902;2023-02-12T05:33:35;102845.25;;;6.39;100.00
17525;BME280;40431;52.198;9.902;2023-02-12T05:36:03;102832.63;;;6.41;100.00
17525;BME280;40431;52.198;9.902;2023-02-12T05:38:30;102843.41;;;6.44;100.00
17525;BME280;40431;52.198;9.902;2023-02-12T05:41:01;102841.63;;;6.43;100.00
17525;BME280;40431;52.198;9.902;2023-02-12T05:43:28;102840.69;;;6.45;100.00
17525;BME280;40431;52.198;9.902;2023-02-12T05:45:57;102824.63;;;6.34;100.00
17525;BME280;40431;52.198;9.902;2023-02-12T05:48:25;102832.66;;;6.42;100.00
17525;BME280;40431;52.198;9.902;2023-02-12T05:50:52;102848.75;;;6.50;100.00
17525;BME280;40431;52.198;9.902;2023-02-12T05:53:20;102837.09;;;6.43;100.00
17525;BME280;40431;52.198;9.902;2023-02-12T05:55:47;102838.03;;;6.41;100.00
17525;BME280;40431;52.198;9.902;2023-02-12T05:58:15;102830.00;;;6.36;100.00
17525;BME280;40431;52.198;9.902;2023-02-12T06:00:41;102847.91;;;6.40;100.00
17525;BME280;40431;52.198;9.902;2023-02-12T06:03:08;102844.34;;;6.35;100.00
17525;BME280;40431;52.198;9.902;2023-02-12T06:05:35;102845.28;;;6.32;100.00
17525;BME280;40431;52.198;9.902;2023-02-12T06:08:02;102848.88;;;6.31;100.00
17525;BME280;40431;52.198;9.902;2023-02-12T06:10:29;102851.56;;;6.34;100.00
17525;BME280;40431;52.198;9.902;2023-02-12T06:12:56;102843.47;;;6.34;100.00
17525;BME280;40431;52.198;9.902;2023-02-12T06:15:25;102847.97;;;6.31;100.00
17525;BME280;40431;52.198;9.902;2023-02-12T06:17:51;102852.44;;;6.40;100.00
17525;BME280;40431;52.198;9.902;2023-02-12T06:20:18;102857.81;;;6.38;100.00
17525;BME280;40431;52.198;9.902;2023-02-12T06:22:45;102856.03;;;6.37;100.00
17525;BME280;40431;52.198;9.902;2023-02-12T06:25:12;102851.50;;;6.42;100.00
17525;BME280;40431;52.198;9.902;2023-02-12T06:27:38;102840.78;;;6.36;100.00
17525;BME280;40431;52.198;9.902;2023-02-12T06:30:06;102842.56;;;6.37;100.00
17525;BME280;40431;52.198;9.902;2023-02-12T06:32:34;102847.94;;;6.37;100.00
17525;BME280;40431;52.198;9.902;2023-02-12T06:35:01;102840.75;;;6.39;100.00
17525;BME280;40431;52.198;9.902;2023-02-12T06:37:28;102851.50;;;6.42;100.00
17525;BME280;40431;52.198;9.902;2023-02-12T06:39:57;102856.88;;;6.44;100.00
17525;BME280;40431;52.198;9.902;2023-02-12T06:42:23;102856.88;;;6.45;100.00
17525;BME280;40431;52.198;9.902;2023-02-12T06:44:50;102849.72;;;6.40;100.00
17525;BME280;40431;52.198;9.902;2023-02-12T06:47:17;102855.13;;;6.35;100.00
17525;BME280;40431;52.198;9.902;2023-02-12T06:49:45;102863.22;;;6.40;100.00
17525;BME280;40431;52.198;9.902;2023-02-12T06:52:12;102857.88;;;6.32;100.00
17525;BME280;40431;52.198;9.902;2023-02-12T06:54:39;102864.13;;;6.34;100.00
17525;BME280;40431;52.198;9.902;2023-02-12T06:57:06;102871.31;;;6.35;100.00
17525;BME280;40431;52.198;9.902;2023-02-12T06:59:34;102858.78;;;6.28;100.00
17525;BME280;40431;52.198;9.902;2023-02-12T07:02:01;102868.69;;;6.24;100.00
17525;BME280;40431;52.198;9.902;2023-02-12T07:04:28;102873.16;;;6.27;100.00
17525;BME280;40431;52.198;9.902;2023-02-12T07:06:56;102882.06;;;6.38;100.00
17525;BME280;40431;52.198;9.902;2023-02-12T07:09:23;102891.97;;;6.36;100.00
17525;BME280;40431;52.198;9.902;2023-02-12T07:11:50;102899.13;;;6.39;100.00
17525;BME280;40431;52.198;9.902;2023-02-12T07:14:16;102896.50;;;6.28;100.00
17525;BME280;40431;52.198;9.902;2023-02-12T07:16:43;102898.28;;;6.30;100.00
17525;BME280;40431;52.198;9.902;2023-02-12T07:19:12;102897.38;;;6.33;100.00
17525;BME280;40431;52.198;9.902;2023-02-12T07:21:40;102884.81;;;6.30;100.00
17525;BME280;40431;52.198;9.902;2023-02-12T07:24:09;102894.66;;;6.36;100.00
17525;BME280;40431;52.198;9.902;2023-02-12T07:26:36;102907.19;;;6.46;100.00
17525;BME280;40431;52.198;9.902;2023-02-12T07:29:04;102901.78;;;6.43;100.00
17525;BME280;40431;52.198;9.902;2023-02-12T07:31:31;102901.78;;;6.43;100.00
17525;BME280;40431;52.198;9.902;2023-02-12T07:33:58;102908.94;;;6.47;100.00
17525;BME280;40431;52.198;9.902;2023-02-12T07:36:28;102901.78;;;6.46;100.00
17525;BME280;40431;52.198;9.902;2023-02-12T07:38:56;102917.06;;;6.49;100.00
17525;BME280;40431;52.198;9.902;2023-02-12T07:41:26;102905.41;;;6.42;100.00
17525;BME280;40431;52.198;9.902;2023-02-12T07:43:55;102908.97;;;6.44;100.00
17525;BME280;40431;52.198;9.902;2023-02-12T07:46:24;102917.91;;;6.52;100.00
17525;BME280;40431;52.198;9.902;2023-02-12T07:48:54;102915.16;;;6.60;100.00
17525;BME280;40431;52.198;9.902;2023-02-12T07:51:22;102916.09;;;6.61;100.00
17525;BME280;40431;52.198;9.902;2023-02-12T07:53:49;102916.09;;;6.61;100.00
17525;BME280;40431;52.198;9.902;2023-02-12T07:56:18;102907.06;;;6.65;100.00
17525;BME280;40431;52.198;9.902;2023-02-12T07:58:49;102910.63;;;6.67;100.00
17525;BME280;40431;52.198;9.902;2023-02-12T08:01:17;102924.09;;;6.72;100.00
17525;BME280;40431;52.198;9.902;2023-02-12T08:03:45;102918.69;;;6.73;100.00
17525;BME280;40431;52.198;9.902;2023-02-12T08:06:15;102919.59;;;6.72;100.00
17525;BME280;40431;52.198;9.902;2023-02-12T08:08:43;102910.63;;;6.70;100.00
17525;BME280;40431;52.198;9.902;2023-02-12T08:11:14;102916.84;;;6.75;100.00
17525;BME280;40431;52.198;9.902;2023-02-12T08:13:43;102924.88;;;6.84;100.00
17525;BME280;40431;52.198;9.902;2023-02-12T08:16:13;102915.00;;;6.87;100.00
17525;BME280;40431;52.198;9.902;2023-02-12T08:18:41;102911.34;;;6.92;100.00
17525;BME280;40431;52.198;9.902;2023-02-12T08:21:09;102914.00;;;6.97;100.00
17525;BME280;40431;52.198;9.902;2023-02-12T08:23:37;102913.94;;;7.03;100.00
17525;BME280;40431;52.198;9.902;2023-02-12T08:26:06;102925.59;;;7.08;100.00
17525;BME280;40431;52.198;9.902;2023-02-12T08:28:33;102924.69;;;7.09;100.00
17525;BME280;40431;52.198;9.902;2023-02-12T08:31:01;102914.81;;;7.08;100.00
17525;BME280;40431;52.198;9.902;2023-02-12T08:33:30;102915.69;;;7.10;100.00
17525;BME280;40431;52.198;9.902;2023-02-12T08:36:04;102924.66;;;7.12;100.00
17525;BME280;40431;52.198;9.902;2023-02-12T08:38:34;102930.91;;;7.17;100.00
17525;BME280;40431;52.198;9.902;2023-02-12T08:41:02;102938.97;;;7.24;100.00
17525;BME280;40431;52.198;9.902;2023-02-12T08:43:30;102947.06;;;7.21;100.00
17525;BME280;40431;52.198;9.902;2023-02-12T08:46:01;102931.84;;;7.15;100.00
17525;BME280;40431;52.198;9.902;2023-02-12T08:48:29;102946.16;;;7.22;100.00
17525;BME280;40431;52.198;9.902;2023-02-12T08:51:03;102944.38;;;7.21;100.00
17525;BME280;40431;52.198;9.902;2023-02-12T08:53:30;102947.97;;;7.21;100.00
17525;BME280;40431;52.198;9.902;2023-02-12T08:55:56;102951.53;;;7.28;100.00
17525;BME280;40431;52.198;9.902;2023-02-12T08:58:26;102960.50;;;7.31;100.00
17525;BME280;40431;52.198;9.902;2023-02-12T09:00:53;102947.03;;;7.27;100.00
17525;BME280;40431;52.198;9.902;2023-02-12T09:03:23;102957.78;;;7.33;100.00
17525;BME280;40431;52.198;9.902;2023-02-12T09:05:51;102947.84;;;7.35;100.00
17525;BME280;40431;52.198;9.902;2023-02-12T09:08:19;102964.91;;;7.40;100.00
17525;BME280;40431;52.198;9.902;2023-02-12T09:10:50;102953.25;;;7.38;100.00
17525;BME280;40431;52.198;9.902;2023-02-12T09:13:17;102961.31;;;7.40;100.00
17525;BME280;40431;52.198;9.902;2023-02-12T09:15:44;102963.94;;;7.44;100.00
17525;BME280;40431;52.198;9.902;2023-02-12T09:18:12;102964.88;;;7.45;100.00
17525;BME280;40431;52.198;9.902;2023-02-12T09:20:42;102965.72;;;7.48;100.00
17525;BME280;40431;52.198;9.902;2023-02-12T09:23:13;102957.59;;;7.53;100.00
17525;BME280;40431;52.198;9.902;2023-02-12T09:25:42;102959.41;;;7.52;100.00
17525;BME280;40431;52.198;9.902;2023-02-12T09:28:11;102964.78;;;7.51;100.00
17525;BME280;40431;52.198;9.902;2023-02-12T09:30:42;102965.72;;;7.50;100.00
17525;BME280;40431;52.198;9.902;2023-02-12T09:33:10;102981.81;;;7.61;100.00
17525;BME280;40431;52.198;9.902;2023-02-12T09:35:40;102972.88;;;7.56;100.00
17525;BME280;40431;52.198;9.902;2023-02-12T09:38:14;102987.13;;;7.67;100.00
17525;BME280;40431;52.198;9.902;2023-02-12T09:40:50;102987.16;;;7.68;100.00
17525;BME280;40431;52.198;9.902;2023-02-12T09:43:32;102976.31;;;7.70;100.00
17525;BME280;40431;52.198;9.902;2023-02-12T09:46:07;102972.72;;;7.68;100.00
17525;BME280;40431;52.198;9.902;2023-02-12T09:48:50;102983.44;;;7.77;100.00
17525;BME280;40431;52.198;9.902;2023-02-12T09:51:21;102990.50;;;7.91;100.00
17525;BME280;40431;52.198;9.902;2023-02-12T09:53:59;102989.59;;;7.92;100.00
17525;BME280;40431;52.198;9.902;2023-02-12T09:56:29;102979.75;;;7.88;100.00
17525;BME280;40431;52.198;9.902;2023-02-12T09:58:59;102969.81;;;7.91;100.00
17525;BME280;40431;52.198;9.902;2023-02-12T10:01:29;102960.75;;;7.92;100.00
17525;BME280;40431;52.198;9.902;2023-02-12T10:03:58;102978.75;;;7.95;100.00
17525;BME280;40431;52.198;9.902;2023-02-12T10:06:29;102988.53;;;8.05;100.00
17525;BME280;40431;52.198;9.902;2023-02-12T10:09:14;102984.06;;;8.02;100.00
17525;BME280;40431;52.198;9.902;2023-02-12T10:11:53;102998.41;;;8.08;100.00
17525;BME280;40431;52.198;9.902;2023-02-12T10:14:50;102981.38;;;8.01;100.00
17525;BME280;40431;52.198;9.902;2023-02-12T10:17:26;102989.34;;;8.13;100.00
17525;BME280;40431;52.198;9.902;2023-02-12T10:20:32;102979.41;;;8.15;100.00
17525;BME280;40431;52.198;9.902;2023-02-12T10:23:13;102981.28;;;8.10;100.00
17525;BME280;40431;52.198;9.902;2023-02-12T10:25:48;102994.84;;;8.06;100.00
17525;BME280;40431;52.198;9.902;2023-02-12T10:28:19;102989.38;;;8.10;100.00
17525;BME280;40431;52.198;9.902;2023-02-12T10:30:54;102994.81;;;8.09;100.00
17525;BME280;40431;52.198;9.902;2023-02-12T10:33:26;102994.84;;;8.07;100.00
17525;BME280;40431;52.198;9.902;2023-02-12T10:36:01;102986.75;;;8.04;100.00
17525;BME280;40431;52.198;9.902;2023-02-12T10:38:36;102981.31;;;8.07;100.00
17525;BME280;40431;52.198;9.902;2023-02-12T10:41:12;102993.84;;;8.14;100.00
17525;BME280;40431;52.198;9.902;2023-02-12T10:43:41;102983.97;;;8.12;100.00
17525;BME280;40431;52.198;9.902;2023-02-12T10:46:12;102986.56;;;8.19;100.00
17525;BME280;40431;52.198;9.902;2023-02-12T10:48:42;102991.88;;;8.29;100.00
17525;BME280;40431;52.198;9.902;2023-02-12T10:51:28;102992.69;;;8.35;100.00
17525;BME280;40431;52.198;9.902;2023-02-12T10:54:34;102995.31;;;8.40;100.00
17525;BME280;40431;52.198;9.902;2023-02-12T10:57:07;102995.22;;;8.49;100.00
17525;BME280;40431;52.198;9.902;2023-02-12T10:59:35;102984.47;;;8.46;100.00
17525;BME280;40431;52.198;9.902;2023-02-12T11:02:01;102992.53;;;8.49;100.00
17525;BME280;40431;52.198;9.902;2023-02-12T11:04:30;102983.50;;;8.54;100.00
17525;BME280;40431;52.198;9.902;2023-02-12T11:06:59;102984.41;;;8.49;100.00
17525;BME280;40431;52.198;9.902;2023-02-12T11:09:28;102983.41;;;8.58;100.00
17525;BME280;40431;52.198;9.902;2023-02-12T11:11:56;102978.88;;;8.59;100.00
17525;BME280;40431;52.198;9.902;2023-02-12T11:14:23;102981.50;;;8.65;100.00
17525;BME280;40431;52.198;9.902;2023-02-12T11:16:51;102983.31;;;8.66;100.00
17525;BME280;40431;52.198;9.902;2023-02-12T11:19:20;102985.16;;;8.62;100.00
17525;BME280;40431;52.198;9.902;2023-02-12T11:21:47;102986.88;;;8.68;100.00
17525;BME280;40431;52.198;9.902;2023-02-12T11:24:27;102979.75;;;8.62;100.00
17525;BME280;40431;52.198;9.902;2023-02-12T11:27:12;102978.94;;;8.56;100.00
17525;BME280;40431;52.198;9.902;2023-02-12T11:29:45;102972.53;;;8.61;100.00
17525;BME280;40431;52.198;9.902;2023-02-12T11:32:15;102986.19;;;8.54;100.00
17525;BME280;40431;52.198;9.902;2023-02-12T11:34:41;102978.09;;;8.54;100.00
17525;BME280;40431;52.198;9.902;2023-02-12T11:37:13;102973.59;;;8.52;100.00
17525;BME280;40431;52.198;9.902;2023-02-12T11:39:45;102961.81;;;8.55;100.00
17525;BME280;40431;52.198;9.902;2023-02-12T11:42:16;102968.16;;;8.52;100.00
17525;BME280;40431;52.198;9.902;2023-02-12T11:44:48;102960.94;;;8.53;100.00
17525;BME280;40431;52.198;9.902;2023-02-12T11:47:17;102960.84;;;8.61;100.00
17525;BME280;40431;52.198;9.902;2023-02-12T11:49:49;102954.41;;;8.68;100.00
17525;BME280;40431;52.198;9.902;2023-02-12T11:52:19;102949.81;;;8.76;100.00
17525;BME280;40431;52.198;9.902;2023-02-12T11:54:48;102955.03;;;8.89;100.00
17525;BME280;40431;52.198;9.902;2023-02-12T11:57:35;102957.59;;;8.96;100.00
17525;BME280;40431;52.198;9.902;2023-02-12T12:00:04;102954.78;;;9.04;100.00
17525;BME280;40431;52.198;9.902;2023-02-12T12:02:38;102954.59;;;9.15;100.00
17525;BME280;40431;52.198;9.902;2023-02-12T12:05:11;102946.47;;;9.13;100.00
17525;BME280;40431;52.198;9.902;2023-02-12T12:07:44;102939.44;;;9.05;100.00
17525;BME280;40431;52.198;9.902;2023-02-12T12:10:15;102944.06;;;8.98;100.00
17525;BME280;40431;52.198;9.902;2023-02-12T12:12:49;102940.44;;;8.99;100.00
17525;BME280;40431;52.198;9.902;2023-02-12T12:15:20;102947.56;;;9.03;100.00
17525;BME280;40431;52.198;9.902;2023-02-12T12:18:18;102945.72;;;9.05;100.00
17525;BME280;40431;52.198;9.902;2023-02-12T12:21:08;102948.56;;;8.96;100.00
17525;BME280;40431;52.198;9.902;2023-02-12T12:23:40;102945.88;;;8.96;100.00
17525;BME280;40431;52.198;9.902;2023-02-12T12:26:10;102947.75;;;8.92;100.00
17525;BME280;40431;52.198;9.902;2023-02-12T12:28:43;102945.97;;;8.88;100.00
17525;BME280;40431;52.198;9.902;2023-02-12T12:31:14;102945.97;;;8.88;100.00
17525;BME280;40431;52.198;9.902;2023-02-12T12:33:43;102940.53;;;8.93;100.00
17525;BME280;40431;52.198;9.902;2023-02-12T12:36:33;102945.81;;;9.00;100.00
17525;BME280;40431;52.198;9.902;2023-02-12T12:39:14;102939.53;;;8.97;100.00
17525;BME280;40431;52.198;9.902;2023-02-12T12:41:54;102941.28;;;9.01;100.00
17525;BME280;40431;52.198;9.902;2023-02-12T12:44:44;102925.94;;;9.03;100.00
17525;BME280;40431;52.198;9.902;2023-02-12T12:47:20;102936.78;;;9.00;100.00
17525;BME280;40431;52.198;9.902;2023-02-12T12:50:05;102931.34;;;9.03;100.00
17525;BME280;40431;52.198;9.902;2023-02-12T12:52:53;102924.97;;;9.07;100.00
17525;BME280;40431;52.198;9.902;2023-02-12T12:55:49;102921.34;;;9.07;100.00
17525;BME280;40431;52.198;9.902;2023-02-12T12:58:25;102921.34;;;9.08;100.00
17525;BME280;40431;52.198;9.902;2023-02-12T13:01:09;102909.56;;;9.09;100.00
17525;BME280;40431;52.198;9.902;2023-02-12T13:03:56;102912.44;;;9.00;100.00
17525;BME280;40431;52.198;9.902;2023-02-12T13:06:38;102901.63;;;8.98;100.00
17525;BME280;40431;52.198;9.902;2023-02-12T13:09:22;102908.78;;;9.04;100.00
17525;BME280;40431;52.198;9.902;2023-02-12T13:12:04;102906.91;;;9.06;100.00
17525;BME280;40431;52.198;9.902;2023-02-12T13:14:42;102909.72;;;9.00;100.00
17525;BME280;40431;52.198;9.902;2023-02-12T13:17:16;102898.00;;;8.99;100.00